FMST

Details ICAO FMST (TLE)
Name TOLIARA
Region Comoros, Mayotte, Réunion and Madagascar
Timezone Indian/Antananarivo (UTC+3.0)
Plans Departing 59
Arriving 100
Stats Elevation 29 ft / 9 m (AMSL)
Location -23.387300° 43.728600°
Runways 2
Magnetic Variation 20.674° W
Sunrise 2021-03-01 03:02:04 UTC / 2021-03-01 06:02:04 Local
Sunset 2021-03-01 15:35:47 UTC / 2021-03-01 18:35:47 Local
Advertisement - Login to hide

Runways

ID Width Length Bearing (true/mag) Surface Threshold Overrun Markings Lighting
04 98 ft / 30 m 6,583 ft / 2,007 m 23.34° / 44.01° ASPHALT 0 ft / 0 m 100 ft / 30 m APP EDGE THRESHOLD
11 42 ft / 13 m 2,624 ft / 800 m 89.07° / 109.74° ASPHALT 0 ft / 0 m 0 ft / 0 m APP
22 98 ft / 30 m 6,583 ft / 2,007 m 203.34° / 224.01° ASPHALT 0 ft / 0 m 100 ft / 30 m APP EDGE THRESHOLD
29 42 ft / 13 m 2,624 ft / 800 m 269.07° / 289.74° ASPHALT 0 ft / 0 m 0 ft / 0 m APP

Map

Weather


0- 5 10 15 20 25 30 35+ Temperature / °C

Clouds and Precipitation
Forecast for 2021-03-01 00:00 UTC. Updated 5 hours ago

Ground ~20,000 ft ~40,000 ft Winds

METAR

Not found

TAF

TAF FMST 282300Z 0100/0124 16010KT 9999 FEW020 SCT040 BECMG 0109/0111 26015KT SCT023CB PROB40 TEMPO 0112/0118 4500 TSRA BECMG 0114/0116 16008KT BECMG 0118/0120 FEW020 SCT040

Frequencies

Tower 118.60 MHz AFIS
Warning: Do not use this data for real-world aviation or navigation. No guarantee of current accuracy is given.